Time;durP1;ratioP1;P1;durP2;ratioP2;P2;SDS_P1;SDS_P2;PMS_P1;PMS_P2;Temp;Humidity;BMP_temperature;BMP_pressure;BME280_temperature;BME280_humidity;BME280_pressure;Samples;Min_cycle;Max_cycle;Signal;HPM_P1;HPM_P2
2021/10/01 00:01:45;;;;;;;4.07;3.13;;;10.70;1.00;;;;;;5112440;28;20246;-53
2021/10/01 00:04:12;;;;;;;3.47;3.17;;;10.60;1.00;;;;;;5106649;28;20647;-54
2021/10/01 00:06:38;;;;;;;5.33;4.30;;;10.50;1.00;;;;;;5110767;28;20674;-54
2021/10/01 00:09:03;;;;;;;4.20;3.60;;;10.50;1.00;;;;;;5111149;28;20418;-53
2021/10/01 00:11:29;;;;;;;4.77;3.47;;;10.50;1.00;;;;;;5112220;28;20515;-54
2021/10/01 00:13:54;;;;;;;4.57;3.57;;;10.50;1.00;;;;;;5111759;28;20640;-54
2021/10/01 00:16:20;;;;;;;5.90;3.50;;;10.50;1.00;;;;;;5111740;28;20182;-54
2021/10/01 00:18:45;;;;;;;4.57;3.47;;;10.50;1.00;;;;;;5112102;28;20258;-54
2021/10/01 00:21:11;;;;;;;3.83;3.60;;;10.50;1.00;;;;;;5108132;28;20183;-54
2021/10/01 00:23:37;;;;;;;10.40;3.50;;;10.50;1.00;;;;;;5105625;28;20190;-53
2021/10/01 00:26:03;;;;;;;3.47;3.17;;;10.50;1.00;;;;;;5111862;28;20668;-54
2021/10/01 00:28:29;;;;;;;3.93;3.63;;;10.50;1.00;;;;;;5110261;28;20561;-53
2021/10/01 00:30:54;;;;;;;4.90;4.03;;;10.50;1.00;;;;;;5113144;28;20470;-54
2021/10/01 00:33:20;;;;;;;4.03;3.63;;;10.50;1.00;;;;;;5107523;28;20170;-53
2021/10/01 00:35:46;;;;;;;5.17;3.17;;;10.50;1.00;;;;;;5111455;28;20269;-53
2021/10/01 00:38:12;;;;;;;5.63;3.60;;;10.40;1.00;;;;;;5113564;28;20243;-54
2021/10/01 00:40:37;;;;;;;3.60;3.30;;;10.40;1.00;;;;;;5109632;28;20505;-54
2021/10/01 00:43:04;;;;;;;3.93;3.40;;;10.40;1.00;;;;;;5115839;28;20547;-53
2021/10/01 00:45:29;;;;;;;3.97;3.63;;;10.40;1.00;;;;;;5115578;28;20656;-53
2021/10/01 00:47:55;;;;;;;3.70;3.40;;;10.40;1.00;;;;;;5115595;28;20460;-54
2021/10/01 00:50:20;;;;;;;4.70;3.27;;;10.50;1.00;;;;;;5112029;28;20309;-55
2021/10/01 00:52:48;;;;;;;4.40;3.90;;;10.40;1.00;;;;;;5115428;28;20183;-54
2021/10/01 00:55:14;;;;;;;4.23;3.70;;;10.50;1.00;;;;;;5114481;28;20175;-53
2021/10/01 00:57:40;;;;;;;4.00;3.70;;;10.40;1.00;;;;;;5115456;28;20552;-54
2021/10/01 01:00:11;;;;;;;3.60;3.13;;;10.40;1.00;;;;;;5113711;28;20446;-53
2021/10/01 01:02:37;;;;;;;5.97;3.00;;;10.40;1.00;;;;;;5110542;28;20178;-54
2021/10/01 01:05:03;;;;;;;4.40;3.77;;;10.40;1.00;;;;;;5115523;28;20951;-54
2021/10/01 01:07:37;;;;;;;3.80;3.40;;;10.30;1.00;;;;;;5115300;28;20261;-53
2021/10/01 01:10:24;;;;;;;4.40;3.40;;;10.30;1.00;;;;;;5113515;28;20883;-54
2021/10/01 01:13:12;;;;;;;4.73;3.63;;;10.20;1.00;;;;;;5115336;28;20920;-54
2021/10/01 01:15:44;;;;;;;4.60;3.50;;;10.20;1.00;;;;;;5107911;28;20456;-53
2021/10/01 01:18:23;;;;;;;4.37;3.50;;;10.20;1.00;;;;;;5113857;28;20435;-53
2021/10/01 01:20:55;;;;;;;4.30;3.90;;;10.10;1.00;;;;;;5113528;28;20446;-53
2021/10/01 01:24:05;;;;;;;4.50;3.80;;;10.10;1.00;;;;;;5099941;28;20509;-53
2021/10/01 01:26:39;;;;;;;4.10;3.13;;;10.10;1.00;;;;;;5082871;28;20444;-54
2021/10/01 01:29:25;;;;;;;6.00;3.77;;;10.20;1.00;;;;;;5114813;28;20419;-53
2021/10/01 01:31:56;;;;;;;5.10;3.40;;;10.20;1.00;;;;;;5106010;28;20789;-53
2021/10/01 01:34:41;;;;;;;5.57;3.97;;;10.10;1.00;;;;;;5103962;28;20473;-53
2021/10/01 01:37:13;;;;;;;6.17;3.37;;;10.10;1.00;;;;;;5114892;28;20440;-53
2021/10/01 01:39:39;;;;;;;4.20;3.13;;;10.10;1.00;;;;;;5114734;28;20438;-54
2021/10/01 01:42:07;;;;;;;7.30;4.40;;;10.20;1.00;;;;;;5114211;28;20464;-53
2021/10/01 01:44:33;;;;;;;4.03;3.10;;;10.20;1.00;;;;;;5109029;28;20468;-53
2021/10/01 01:47:00;;;;;;;4.33;3.63;;;10.20;1.00;;;;;;5103766;28;20452;-54
2021/10/01 01:49:28;;;;;;;4.57;3.90;;;10.10;1.00;;;;;;5108717;28;20509;-54
2021/10/01 01:51:56;;;;;;;4.83;4.30;;;10.10;1.00;;;;;;5114071;28;20467;-54
2021/10/01 01:54:24;;;;;;;4.20;3.40;;;10.10;1.00;;;;;;5113104;28;20593;-53
2021/10/01 01:56:50;;;;;;;3.83;3.40;;;10.10;1.00;;;;;;5114463;28;20407;-54
2021/10/01 01:59:16;;;;;;;4.00;3.50;;;10.10;1.00;;;;;;5113086;28;20448;-54
2021/10/01 02:01:43;;;;;;;4.30;3.60;;;10.10;1.00;;;;;;5114425;28;20179;-53
2021/10/01 02:04:10;;;;;;;4.00;3.60;;;10.10;1.00;;;;;;5114039;28;20254;-54
2021/10/01 02:06:36;;;;;;;4.53;3.63;;;10.10;1.00;;;;;;5108073;28;20443;-54
2021/10/01 02:09:02;;;;;;;4.80;3.57;;;10.10;1.00;;;;;;5110231;28;20479;-53
2021/10/01 02:11:28;;;;;;;10.03;3.77;;;10.00;1.00;;;;;;5114037;28;20855;-55
2021/10/01 02:13:57;;;;;;;4.53;4.00;;;10.00;1.00;;;;;;5113791;28;20445;-54
2021/10/01 02:16:26;;;;;;;4.87;3.47;;;10.00;1.00;;;;;;5114163;28;20440;-54
2021/10/01 02:18:54;;;;;;;4.13;3.53;;;10.00;1.00;;;;;;5114130;28;20429;-54
2021/10/01 02:21:22;;;;;;;5.03;3.40;;;10.00;1.00;;;;;;5113632;28;20492;-53
2021/10/01 02:23:48;;;;;;;4.90;4.40;;;9.90;1.00;;;;;;5113917;28;20498;-54
2021/10/01 02:26:34;;;;;;;4.70;4.10;;;8.30;1.00;;;;;;5113806;28;20428;-53
2021/10/01 02:29:28;;;;;;;6.83;4.03;;;9.90;1.00;;;;;;5113556;28;20805;-54
2021/10/01 02:32:13;;;;;;;4.43;4.03;;;9.80;1.00;;;;;;5109877;28;20843;-53
2021/10/01 02:34:42;;;;;;;3.90;3.60;;;9.80;1.00;;;;;;5098203;28;20440;-53
2021/10/01 02:37:08;;;;;;;4.97;3.93;;;9.80;1.00;;;;;;5110769;28;20437;-54
2021/10/01 02:39:35;;;;;;;5.33;3.80;;;9.70;1.00;;;;;;5113663;28;20914;-53
2021/10/01 02:42:02;;;;;;;5.43;3.97;;;9.70;1.00;;;;;;5103767;28;20437;-53
2021/10/01 02:44:28;;;;;;;3.67;3.13;;;9.70;1.00;;;;;;5111507;28;20493;-54
2021/10/01 02:46:53;;;;;;;4.20;3.80;;;9.80;1.00;;;;;;5113576;28;21004;-53
2021/10/01 02:49:19;;;;;;;5.10;3.83;;;9.70;1.00;;;;;;5109455;28;20663;-53
2021/10/01 02:51:50;;;;;;;5.40;4.03;;;9.80;1.00;;;;;;5113385;28;20709;-52
2021/10/01 02:54:23;;;;;;;4.30;3.10;;;9.80;1.00;;;;;;5096757;28;20240;-53
2021/10/01 02:56:55;;;;;;;4.60;4.20;;;9.70;1.00;;;;;;5113373;28;20425;-54
2021/10/01 02:59:26;;;;;;;4.20;3.43;;;9.70;1.00;;;;;;5113296;28;20513;-53
2021/10/01 03:01:52;;;;;;;4.37;3.97;;;9.60;1.00;;;;;;5105267;28;20448;-53
2021/10/01 03:04:20;;;;;;;5.03;4.10;;;9.50;1.00;;;;;;5112897;28;20574;-56
2021/10/01 03:06:47;;;;;;;4.23;3.73;;;9.50;1.00;;;;;;5109600;28;20443;-53
2021/10/01 03:09:16;;;;;;;3.90;3.40;;;9.50;1.00;;;;;;5103900;28;20486;-53
2021/10/01 03:11:42;;;;;;;4.70;3.63;;;9.40;1.00;;;;;;5113028;28;20440;-53
2021/10/01 03:14:09;;;;;;;3.97;3.50;;;9.40;1.00;;;;;;5112759;28;20436;-54
2021/10/01 03:16:36;;;;;;;7.40;3.90;;;9.40;1.00;;;;;;5112593;28;20576;-54
2021/10/01 03:19:03;;;;;;;4.37;3.53;;;9.40;1.00;;;;;;5101524;28;20489;-53
2021/10/01 03:21:29;;;;;;;3.97;3.53;;;9.40;1.00;;;;;;5109689;28;20445;-54
2021/10/01 03:23:55;;;;;;;6.07;4.23;;;9.30;1.00;;;;;;5112843;28;20428;-53
2021/10/01 03:26:24;;;;;;;4.80;4.10;;;9.40;1.00;;;;;;5112573;28;20269;-53
2021/10/01 03:28:50;;;;;;;6.30;3.97;;;9.40;1.00;;;;;;5109012;28;20412;-54
2021/10/01 03:31:16;;;;;;;6.17;3.60;;;9.40;1.00;;;;;;5111141;28;20471;-54
2021/10/01 03:33:45;;;;;;;4.13;3.80;;;9.30;1.00;;;;;;5112540;28;20577;-53
2021/10/01 03:36:10;;;;;;;5.13;4.10;;;9.30;1.00;;;;;;5112763;28;20444;-54
2021/10/01 03:38:37;;;;;;;4.93;3.83;;;9.30;1.00;;;;;;5105504;28;20432;-53
2021/10/01 03:41:03;;;;;;;6.50;4.47;;;9.30;1.00;;;;;;5112744;28;20186;-54
2021/10/01 03:43:29;;;;;;;8.27;4.70;;;9.40;1.00;;;;;;5112580;28;20447;-53
2021/10/01 03:45:57;;;;;;;4.70;4.10;;;9.30;1.00;;;;;;5108703;28;20556;-54
2021/10/01 03:48:23;;;;;;;5.90;4.07;;;9.30;1.00;;;;;;5108261;28;20477;-54
2021/10/01 03:50:49;;;;;;;5.17;4.00;;;9.30;1.00;;;;;;5112190;28;20525;-53
2021/10/01 03:53:14;;;;;;;4.77;4.27;;;9.20;1.00;;;;;;5112664;28;20561;-53
2021/10/01 03:55:40;;;;;;;5.67;4.90;;;9.10;1.00;;;;;;5105813;28;20178;-53
2021/10/01 03:58:05;;;;;;;10.03;4.77;;;9.20;1.00;;;;;;5112301;28;20171;-54
2021/10/01 04:00:31;;;;;;;5.53;4.50;;;9.20;1.00;;;;;;5110609;28;20187;-53
2021/10/01 04:02:57;;;;;;;8.00;4.80;;;9.30;1.00;;;;;;5112353;28;20182;-53
2021/10/01 04:05:22;;;;;;;6.03;4.40;;;9.30;1.00;;;;;;5114641;28;20228;-54
2021/10/01 04:07:48;;;;;;;4.90;3.70;;;9.30;1.00;;;;;;5116381;28;20665;-52
2021/10/01 04:10:14;;;;;;;5.17;4.77;;;9.30;1.00;;;;;;5111455;28;20199;-55
2021/10/01 04:12:40;;;;;;;6.13;5.53;;;9.20;1.00;;;;;;5114991;28;20210;-54
2021/10/01 04:15:07;;;;;;;5.17;4.20;;;9.20;1.00;;;;;;5113404;28;20400;-53
2021/10/01 04:17:33;;;;;;;4.53;3.63;;;9.30;1.00;;;;;;5114909;28;20454;-53
2021/10/01 04:19:58;;;;;;;4.63;4.23;;;9.20;1.00;;;;;;5114518;28;20634;-54
2021/10/01 04:22:24;;;;;;;4.10;3.70;;;9.20;1.00;;;;;;5114742;28;20523;-54
2021/10/01 04:24:50;;;;;;;6.23;3.43;;;9.20;1.00;;;;;;5108874;27;20270;-54
2021/10/01 04:27:16;;;;;;;6.03;4.07;;;9.20;1.00;;;;;;5114464;28;20630;-53
2021/10/01 04:29:42;;;;;;;5.40;4.13;;;9.20;1.00;;;;;;5113676;28;20469;-54
2021/10/01 04:32:08;;;;;;;5.67;4.73;;;9.10;1.00;;;;;;5112927;28;20228;-54
2021/10/01 04:34:39;;;;;;;6.80;4.30;;;9.20;1.00;;;;;;5114261;28;20728;-53
2021/10/01 04:37:04;;;;;;;6.63;4.00;;;9.20;1.00;;;;;;5112006;28;20941;-55
2021/10/01 04:39:30;;;;;;;5.17;4.37;;;9.20;1.00;;;;;;5112834;28;20464;-53
2021/10/01 04:41:56;;;;;;;4.60;3.37;;;9.30;1.00;;;;;;5113191;28;20258;-54
2021/10/01 04:44:23;;;;;;;6.43;4.23;;;9.20;1.00;;;;;;5112554;28;20228;-55
2021/10/01 04:46:49;;;;;;;4.40;3.97;;;9.10;1.00;;;;;;5113323;28;20270;-53
2021/10/01 04:49:14;;;;;;;5.40;4.47;;;9.10;1.00;;;;;;5114716;28;20504;-54
2021/10/01 04:51:40;;;;;;;5.63;5.00;;;9.10;1.00;;;;;;5113118;28;20264;-53
2021/10/01 04:54:05;;;;;;;8.00;4.80;;;9.10;1.00;;;;;;5112413;28;20174;-54
2021/10/01 04:56:31;;;;;;;6.27;4.47;;;9.10;1.00;;;;;;5115015;28;20167;-54
2021/10/01 04:58:56;;;;;;;5.73;5.00;;;9.20;1.00;;;;;;5111411;28;20182;-55
2021/10/01 05:01:22;;;;;;;6.00;4.87;;;9.10;1.00;;;;;;5103755;28;20174;-54
2021/10/01 05:03:48;;;;;;;5.27;3.83;;;9.10;1.00;;;;;;5107329;28;20740;-54
2021/10/01 05:06:15;;;;;;;6.17;4.67;;;9.20;1.00;;;;;;5114088;28;20563;-55
2021/10/01 05:08:40;;;;;;;5.00;3.80;;;9.20;1.00;;;;;;5113023;28;20450;-54
2021/10/01 05:11:06;;;;;;;9.00;5.10;;;9.20;1.00;;;;;;5114043;28;20218;-54
2021/10/01 05:13:31;;;;;;;6.40;4.40;;;9.20;1.00;;;;;;5114549;28;20193;-54
2021/10/01 05:15:57;;;;;;;7.47;4.97;;;9.20;1.00;;;;;;5113842;28;20190;-53
2021/10/01 05:18:23;;;;;;;6.10;4.90;;;9.20;1.00;;;;;;5114053;28;20186;-54
2021/10/01 05:20:49;;;;;;;5.63;4.40;;;9.10;1.00;;;;;;5114438;28;20489;-54
2021/10/01 05:23:15;;;;;;;6.53;4.87;;;9.10;1.00;;;;;;5110187;28;20752;-53
2021/10/01 05:25:41;;;;;;;10.10;7.23;;;9.20;1.00;;;;;;5113836;28;20432;-54
2021/10/01 05:28:06;;;;;;;4.67;3.60;;;9.20;1.00;;;;;;5112881;28;20178;-55
2021/10/01 05:30:32;;;;;;;6.87;4.80;;;9.20;1.00;;;;;;5111459;28;20202;-54
2021/10/01 05:32:59;;;;;;;5.43;4.83;;;9.30;1.00;;;;;;5111672;28;20185;-55
2021/10/01 05:35:24;;;;;;;8.73;4.43;;;9.20;1.00;;;;;;5112866;28;20502;-54
2021/10/01 05:37:50;;;;;;;6.27;4.80;;;9.30;1.00;;;;;;5114537;28;20529;-54
2021/10/01 05:40:15;;;;;;;6.20;4.53;;;9.30;1.00;;;;;;5113299;28;20182;-55
2021/10/01 05:42:41;;;;;;;7.20;4.10;;;9.40;1.00;;;;;;5108357;28;20175;-54
2021/10/01 05:45:07;;;;;;;6.60;4.20;;;9.50;1.00;;;;;;5113337;28;20206;-54
2021/10/01 05:47:34;;;;;;;5.23;3.90;;;9.50;1.00;;;;;;5113870;28;20239;-54
2021/10/01 05:50:03;;;;;;;6.20;3.80;;;9.60;1.00;;;;;;5095766;28;20463;-54
2021/10/01 05:54:57;;;;;;;6.80;4.70;;;9.70;1.00;;;;;;5113627;28;20429;-54
2021/10/01 05:57:23;;;;;;;5.97;4.43;;;9.90;1.00;;;;;;5113509;28;20459;-54
2021/10/01 05:59:48;;;;;;;6.73;3.63;;;10.00;1.00;;;;;;5109862;28;20262;-53
2021/10/01 06:02:19;;;;;;;8.47;5.90;;;10.10;1.00;;;;;;5107255;28;20190;-54
2021/10/01 06:04:46;;;;;;;9.73;5.80;;;10.00;1.00;;;;;;5112058;28;20216;-53
2021/10/01 06:07:12;;;;;;;7.83;4.60;;;10.10;1.00;;;;;;5110257;28;20949;-54
2021/10/01 06:09:40;;;;;;;4.50;3.77;;;10.10;1.00;;;;;;5110564;28;20506;-54
2021/10/01 06:12:07;;;;;;;9.60;4.50;;;10.10;1.00;;;;;;5113348;28;20524;-53
2021/10/01 06:14:33;;;;;;;4.10;3.80;;;10.10;1.00;;;;;;5100230;28;20420;-53
2021/10/01 06:16:58;;;;;;;7.80;5.17;;;10.20;1.00;;;;;;5104196;28;20767;-55
2021/10/01 06:19:24;;;;;;;6.10;4.87;;;10.30;1.00;;;;;;5106946;28;20690;-54
2021/10/01 06:21:52;;;;;;;7.23;4.93;;;10.40;1.00;;;;;;5113018;28;20239;-53
2021/10/01 06:24:18;;;;;;;7.20;6.20;;;10.30;1.00;;;;;;5112443;27;20233;-54
2021/10/01 06:26:47;;;;;;;9.33;7.47;;;10.30;1.00;;;;;;5112179;28;20432;-53
2021/10/01 06:29:14;;;;;;;10.93;6.50;;;10.30;1.00;;;;;;5106665;28;20480;-54
2021/10/01 06:31:40;;;;;;;9.00;6.37;;;10.40;1.00;;;;;;5107701;28;20428;-54
2021/10/01 06:34:05;;;;;;;5.20;4.70;;;10.60;1.00;;;;;;5105336;28;20433;-54
2021/10/01 06:36:31;;;;;;;7.80;4.30;;;10.60;1.00;;;;;;5112840;28;20179;-54
2021/10/01 06:38:56;;;;;;;6.43;4.40;;;10.80;1.00;;;;;;5102703;28;20270;-53
2021/10/01 06:41:22;;;;;;;6.43;3.80;;;10.90;1.00;;;;;;5107750;28;20186;-54
2021/10/01 06:43:55;;;;;;;5.63;5.07;;;11.10;1.00;;;;;;5112651;28;20232;-54
2021/10/01 06:46:33;;;;;;;9.40;5.70;;;11.20;1.00;;;;;;5108277;28;20473;-53
2021/10/01 06:52:01;;;;;;;5.67;3.70;;;11.40;1.00;;;;;;5103203;28;20482;-54
2021/10/01 07:22:06;;;;;;;5.23;3.50;;;13.20;1.00;;;;;;5111600;28;20553;-54
2021/10/01 08:19:28;;;;;;;3.13;2.53;;;15.40;1.00;;;;;;5109769;28;20833;-55
2021/10/01 08:21:57;;;;;;;2.93;2.50;;;15.40;1.00;;;;;;5100098;28;20501;-54
2021/10/01 08:24:24;;;;;;;4.20;2.70;;;15.40;1.00;;;;;;5111629;28;20447;-54
2021/10/01 08:26:51;;;;;;;3.90;2.90;;;15.40;1.00;;;;;;5109031;28;20440;-54
2021/10/01 08:29:17;;;;;;;4.10;3.10;;;15.50;1.00;;;;;;5107939;28;20432;-55
2021/10/01 08:31:43;;;;;;;3.73;2.57;;;15.70;1.00;;;;;;5107938;28;20519;-54
2021/10/01 08:34:09;;;;;;;5.57;2.80;;;15.80;1.00;;;;;;5110486;28;20441;-54
2021/10/01 08:36:35;;;;;;;5.83;3.40;;;15.90;1.00;;;;;;5107123;28;20456;-54
2021/10/01 08:39:02;;;;;;;4.23;3.00;;;16.00;1.00;;;;;;5110942;28;20538;-55
2021/10/01 08:41:28;;;;;;;4.60;3.03;;;16.00;1.00;;;;;;5110098;28;20194;-55
2021/10/01 08:43:53;;;;;;;2.90;2.53;;;16.10;1.00;;;;;;5110233;28;20425;-55
2021/10/01 08:46:20;;;;;;;3.47;2.50;;;16.10;1.00;;;;;;5110835;28;20669;-55
2021/10/01 08:48:46;;;;;;;3.60;2.83;;;16.00;1.00;;;;;;5108794;28;20223;-55
2021/10/01 08:51:14;;;;;;;5.63;2.80;;;16.10;1.00;;;;;;5108448;28;20474;-55
2021/10/01 08:53:40;;;;;;;3.70;2.50;;;16.20;1.00;;;;;;5107273;28;20438;-54
2021/10/01 08:56:07;;;;;;;3.93;2.50;;;16.40;1.00;;;;;;5115030;28;20507;-55
2021/10/01 08:58:33;;;;;;;3.33;2.57;;;16.40;1.00;;;;;;5113873;28;20838;-54
2021/10/01 09:01:01;;;;;;;5.50;2.77;;;16.50;1.00;;;;;;5110498;28;20560;-54
2021/10/01 09:03:27;;;;;;;5.77;3.50;;;16.40;1.00;;;;;;5114093;28;20510;-55
2021/10/01 09:05:53;;;;;;;3.40;2.80;;;16.50;1.00;;;;;;5109139;28;20450;-55
2021/10/01 09:08:24;;;;;;;4.03;3.20;;;16.70;1.00;;;;;;5112745;28;20412;-56
2021/10/01 09:11:02;;;;;;;3.63;2.63;;;16.80;1.00;;;;;;5113987;28;20438;-54
2021/10/01 09:13:28;;;;;;;6.50;2.80;;;16.90;1.00;;;;;;5111493;28;20417;-54
2021/10/01 09:16:05;;;;;;;3.57;2.20;;;17.00;1.00;;;;;;5101023;28;20426;-54
2021/10/01 09:18:36;;;;;;;3.13;2.10;;;17.10;1.00;;;;;;5110504;28;20443;-54
2021/10/01 09:21:09;;;;;;;1.80;1.70;;;17.40;1.00;;;;;;5111510;28;20421;-56
2021/10/01 09:23:44;;;;;;;1.90;1.43;;;17.50;1.00;;;;;;5098809;28;20440;-55
2021/10/01 09:26:15;;;;;;;5.30;2.13;;;17.70;1.00;;;;;;5111869;28;20503;-55
2021/10/01 09:28:50;;;;;;;3.83;1.90;;;17.70;1.00;;;;;;5098522;28;20954;-54
2021/10/01 09:31:39;;;;;;;2.33;1.63;;;17.80;1.00;;;;;;5109299;28;20650;-55
2021/10/01 09:34:07;;;;;;;3.80;1.57;;;17.90;1.00;;;;;;5112454;28;20403;-55
2021/10/01 09:36:34;;;;;;;5.47;1.77;;;17.90;1.00;;;;;;5113697;28;20428;-54
2021/10/01 09:39:00;;;;;;;2.70;1.63;;;17.90;1.00;;;;;;5112479;28;20407;-54
2021/10/01 09:41:28;;;;;;;3.30;1.70;;;17.90;1.00;;;;;;5113543;28;20432;-55
2021/10/01 09:44:04;;;;;;;2.87;1.60;;;18.00;1.00;;;;;;5110451;28;20439;-55
2021/10/01 09:46:39;;;;;;;1.93;1.70;;;18.10;1.00;;;;;;5113198;28;20410;-55
2021/10/01 09:49:06;;;;;;;2.80;1.50;;;18.20;1.00;;;;;;5112367;28;20450;-55
2021/10/01 09:51:32;;;;;;;4.00;2.10;;;18.30;1.00;;;;;;5113038;28;20456;-54
2021/10/01 09:53:57;;;;;;;2.97;1.60;;;18.40;1.00;;;;;;5108826;28;20583;-55
2021/10/01 09:56:28;;;;;;;3.13;1.57;;;18.40;1.00;;;;;;5113056;28;20208;-55
2021/10/01 09:59:17;;;;;;;3.13;1.50;;;18.60;1.00;;;;;;5110669;28;20537;-57
2021/10/01 10:02:04;;;;;;;2.50;1.53;;;18.70;1.00;;;;;;5109997;28;20443;-56
2021/10/01 10:04:38;;;;;;;1.37;1.27;;;18.80;1.00;;;;;;5111382;28;20493;-56
2021/10/01 10:07:08;;;;;;;3.17;1.43;;;18.80;1.00;;;;;;5106079;28;20887;-56
2021/10/01 10:09:37;;;;;;;2.50;1.77;;;18.90;1.00;;;;;;5108079;28;20506;-57
2021/10/01 10:12:03;;;;;;;2.20;1.60;;;19.00;1.00;;;;;;5109095;28;20421;-56
2021/10/01 10:14:33;;;;;;;2.97;1.33;;;19.00;1.00;;;;;;5111036;28;20407;-57
2021/10/01 10:16:59;;;;;;;2.60;1.63;;;18.90;1.00;;;;;;5108845;28;20413;-57
2021/10/01 10:19:30;;;;;;;3.90;1.63;;;18.80;1.00;;;;;;5110652;28;20445;-56
2021/10/01 10:21:56;;;;;;;1.80;1.30;;;18.80;1.00;;;;;;5107573;28;20416;-56
2021/10/01 10:24:21;;;;;;;4.50;1.77;;;18.90;1.00;;;;;;5107941;28;20804;-56
2021/10/01 10:26:47;;;;;;;2.03;1.83;;;19.00;1.00;;;;;;5110589;28;20491;-56
2021/10/01 10:29:13;;;;;;;2.70;1.97;;;19.00;1.00;;;;;;5106783;28;20632;-56
2021/10/01 10:31:45;;;;;;;2.53;2.10;;;19.20;1.00;;;;;;5111482;28;20620;-56
2021/10/01 10:34:23;;;;;;;2.97;2.03;;;19.20;1.00;;;;;;5099502;28;20534;-57
2021/10/01 10:36:50;;;;;;;2.43;1.97;;;19.30;1.00;;;;;;5110950;28;20487;-56
2021/10/01 10:39:17;;;;;;;4.80;1.97;;;19.40;1.00;;;;;;5095167;28;20921;-55
2021/10/01 10:42:06;;;;;;;2.17;1.83;;;19.30;1.00;;;;;;5110777;27;20523;-57
2021/10/01 10:44:45;;;;;;;2.67;2.07;;;19.30;1.00;;;;;;5098255;28;20458;-56
2021/10/01 10:47:31;;;;;;;3.43;1.90;;;19.30;1.00;;;;;;5105332;28;20410;-56
2021/10/01 10:50:24;;;;;;;3.57;2.10;;;19.50;1.00;;;;;;5107679;28;20563;-56
2021/10/01 10:53:09;;;;;;;3.27;1.77;;;19.50;1.00;;;;;;5107326;28;20409;-57
2021/10/01 10:55:44;;;;;;;3.53;1.70;;;19.40;1.00;;;;;;5110692;28;20402;-56
2021/10/01 10:58:27;;;;;;;2.63;1.63;;;19.30;1.00;;;;;;5107869;28;20406;-56
2021/10/01 11:01:01;;;;;;;2.77;1.70;;;19.40;1.00;;;;;;5110067;28;20432;-56
2021/10/01 11:03:34;;;;;;;2.77;1.63;;;19.40;1.00;;;;;;5108115;27;20433;-56
2021/10/01 11:06:09;;;;;;;2.60;2.40;;;19.50;1.00;;;;;;5105602;28;20446;-56
2021/10/01 11:08:41;;;;;;;4.50;2.40;;;19.70;1.00;;;;;;5109740;28;20405;-56
2021/10/01 11:11:29;;;;;;;2.93;1.83;;;19.80;1.00;;;;;;5110245;28;20458;-57
2021/10/01 11:14:16;;;;;;;4.57;2.60;;;19.80;1.00;;;;;;5107486;28;20447;-56
2021/10/01 11:17:06;;;;;;;3.77;1.77;;;19.60;1.00;;;;;;5107307;28;20930;-56
2021/10/01 11:19:37;;;;;;;2.50;2.00;;;19.70;1.00;;;;;;5099554;28;20436;-57
2021/10/01 11:22:26;;;;;;;3.13;2.03;;;19.70;1.00;;;;;;5107148;28;20760;-56
2021/10/01 11:25:17;;;;;;;2.10;1.77;;;19.80;1.00;;;;;;5110637;28;20867;-56
2021/10/01 11:27:54;;;;;;;4.63;1.53;;;19.70;1.00;;;;;;5107049;28;20460;-56
2021/10/01 11:30:21;;;;;;;2.07;1.63;;;19.80;1.00;;;;;;5107413;28;20467;-56
2021/10/01 11:32:46;;;;;;;2.03;1.57;;;20.00;1.00;;;;;;5106760;28;20831;-55
2021/10/01 11:35:12;;;;;;;2.10;1.77;;;20.10;1.00;;;;;;5109104;28;20497;-57
2021/10/01 11:37:41;;;;;;;4.20;1.77;;;20.10;1.00;;;;;;5110107;28;20188;-58
2021/10/01 11:40:22;;;;;;;2.40;1.27;;;20.10;1.00;;;;;;5108082;28;20419;-56
2021/10/01 11:42:50;;;;;;;2.33;1.27;;;20.40;1.00;;;;;;5107014;28;20442;-56
2021/10/01 11:45:32;;;;;;;3.67;1.90;;;20.40;1.00;;;;;;5107690;28;20477;-56
2021/10/01 11:48:06;;;;;;;2.63;1.50;;;20.50;1.00;;;;;;5109295;28;20439;-56
2021/10/01 11:50:37;;;;;;;2.37;1.30;;;20.40;1.00;;;;;;5106684;28;20456;-54
2021/10/01 11:53:05;;;;;;;3.70;1.37;;;20.30;1.00;;;;;;5109414;28;20443;-57
2021/10/01 11:55:35;;;;;;;1.83;1.70;;;20.40;1.00;;;;;;5095182;28;20410;-57
2021/10/01 11:58:02;;;;;;;3.90;2.10;;;20.60;1.00;;;;;;5103432;28;20452;-56
2021/10/01 12:00:28;;;;;;;31.00;3.87;;;20.80;1.00;;;;;;5109045;28;20413;-56
2021/10/01 12:02:54;;;;;;;3.37;1.47;;;20.70;1.00;;;;;;5109339;28;20411;-57
2021/10/01 12:05:35;;;;;;;3.80;1.33;;;20.60;1.00;;;;;;5109818;28;20414;-56
2021/10/01 12:08:03;;;;;;;3.30;1.50;;;20.60;1.00;;;;;;5109542;28;20411;-56
2021/10/01 12:10:34;;;;;;;2.70;1.47;;;20.50;1.00;;;;;;5109399;28;20519;-56
2021/10/01 12:13:02;;;;;;;1.90;1.30;;;20.50;1.00;;;;;;5110278;28;20941;-56
2021/10/01 12:15:50;;;;;;;3.73;1.27;;;20.50;1.00;;;;;;5110345;28;20914;-57
2021/10/01 12:18:25;;;;;;;1.63;1.30;;;20.70;1.00;;;;;;5109833;28;20504;-56
2021/10/01 12:20:52;;;;;;;1.37;1.27;;;20.80;1.00;;;;;;5109927;28;20514;-57
2021/10/01 12:23:22;;;;;;;2.80;1.50;;;21.00;1.00;;;;;;5107567;28;20979;-56
2021/10/01 12:25:50;;;;;;;2.27;1.43;;;20.90;1.00;;;;;;5111159;28;20855;-56
2021/10/01 12:28:16;;;;;;;2.03;1.30;;;20.90;1.00;;;;;;5114188;28;20446;-56
2021/10/01 12:30:42;;;;;;;3.37;1.63;;;20.80;1.00;;;;;;5114287;28;20442;-56
2021/10/01 12:33:09;;;;;;;2.57;1.63;;;20.80;1.00;;;;;;5105480;28;20533;-56
2021/10/01 12:35:35;;;;;;;3.93;1.57;;;20.70;1.00;;;;;;5114606;28;20182;-56
2021/10/01 12:38:01;;;;;;;4.50;1.50;;;20.60;1.00;;;;;;5105792;28;20919;-57
2021/10/01 12:40:26;;;;;;;1.83;1.33;;;20.60;1.00;;;;;;5113429;28;20448;-56
2021/10/01 12:42:52;;;;;;;3.10;1.67;;;20.50;1.00;;;;;;5113715;28;20181;-57
2021/10/01 12:45:19;;;;;;;2.23;1.60;;;20.60;1.00;;;;;;5114012;28;20187;-56
2021/10/01 12:47:47;;;;;;;2.67;1.83;;;20.40;1.00;;;;;;5114109;28;20295;-56
2021/10/01 12:50:22;;;;;;;1.93;1.73;;;20.40;1.00;;;;;;5113559;28;20475;-58
2021/10/01 12:53:04;;;;;;;2.70;1.90;;;20.50;1.00;;;;;;5114454;28;20776;-56
2021/10/01 12:55:32;;;;;;;6.20;3.23;;;20.40;1.00;;;;;;5113783;28;20452;-57
2021/10/01 12:57:58;;;;;;;3.00;1.80;;;20.30;1.00;;;;;;5113633;28;20435;-56
2021/10/01 13:00:28;;;;;;;4.60;2.10;;;20.40;1.00;;;;;;5113734;28;20583;-58
2021/10/01 13:03:05;;;;;;;3.77;2.40;;;20.70;1.00;;;;;;5112924;28;20194;-57
2021/10/01 13:05:33;;;;;;;3.07;2.50;;;20.60;1.00;;;;;;5113817;28;20841;-57
2021/10/01 13:08:00;;;;;;;3.53;2.60;;;20.50;1.00;;;;;;5113222;28;20505;-56
2021/10/01 13:10:50;;;;;;;3.40;2.70;;;20.50;1.00;;;;;;5108720;28;20457;-56
2021/10/01 13:13:28;;;;;;;2.97;2.50;;;20.40;1.00;;;;;;5113207;28;20424;-57
2021/10/01 13:15:59;;;;;;;4.67;2.80;;;20.30;1.00;;;;;;5113634;28;20407;-55
2021/10/01 13:18:30;;;;;;;6.83;2.80;;;20.20;1.00;;;;;;5114448;28;20442;-56
2021/10/01 13:21:01;;;;;;;4.47;3.13;;;20.20;1.00;;;;;;5114538;28;20460;-56
2021/10/01 13:23:52;;;;;;;3.40;2.70;;;20.10;1.00;;;;;;5114318;28;21026;-55
2021/10/01 13:26:21;;;;;;;4.30;3.70;;;20.20;1.00;;;;;;5086950;28;20422;-56
2021/10/01 13:28:59;;;;;;;3.90;3.27;;;20.20;1.00;;;;;;5114780;28;20849;-56
2021/10/01 13:31:26;;;;;;;7.07;4.27;;;20.20;1.00;;;;;;5114633;28;20468;-55
2021/10/01 13:33:52;;;;;;;6.90;3.40;;;20.30;1.00;;;;;;5114836;28;20445;-55
2021/10/01 13:36:18;;;;;;;4.77;3.47;;;20.40;1.00;;;;;;5114709;28;20409;-55
2021/10/01 13:38:46;;;;;;;4.23;3.20;;;20.40;1.00;;;;;;5114142;28;20539;-55
2021/10/01 13:41:14;;;;;;;4.10;3.60;;;20.30;1.00;;;;;;5114379;28;20648;-56
2021/10/01 13:43:41;;;;;;;3.77;3.40;;;20.20;1.00;;;;;;5104631;28;20519;-56
2021/10/01 13:46:09;;;;;;;5.73;4.20;;;20.20;1.00;;;;;;5114442;28;20934;-55
2021/10/01 13:48:36;;;;;;;4.30;3.80;;;20.10;1.00;;;;;;5114198;28;20407;-56
2021/10/01 13:51:01;;;;;;;4.33;3.93;;;20.00;1.00;;;;;;5105046;28;20469;-56
2021/10/01 13:53:27;;;;;;;7.53;3.57;;;21.60;1.00;;;;;;5114045;28;20421;-56
2021/10/01 13:55:53;;;;;;;3.67;3.37;;;20.00;1.00;;;;;;5104976;28;20312;-56
2021/10/01 13:58:19;;;;;;;7.73;3.73;;;19.80;1.00;;;;;;5114136;28;20439;-54
2021/10/01 14:00:46;;;;;;;4.43;3.47;;;19.80;1.00;;;;;;5096160;28;20795;-56
2021/10/01 14:03:12;;;;;;;5.07;4.43;;;19.80;1.00;;;;;;5114332;28;20467;-56
2021/10/01 14:05:39;;;;;;;5.60;4.20;;;19.70;1.00;;;;;;5105764;28;20525;-56
2021/10/01 14:08:05;;;;;;;7.67;4.40;;;19.70;1.00;;;;;;5101424;28;20972;-56
2021/10/01 14:10:31;;;;;;;5.77;3.83;;;19.80;1.00;;;;;;5113987;28;20832;-57
2021/10/01 14:12:58;;;;;;;5.43;3.20;;;19.70;1.00;;;;;;5102684;28;20776;-56
2021/10/01 14:15:25;;;;;;;4.27;3.17;;;19.70;1.00;;;;;;5113949;28;20514;-56
2021/10/01 14:17:52;;;;;;;3.53;3.13;;;19.60;1.00;;;;;;5113896;27;20920;-56
2021/10/01 14:20:21;;;;;;;5.80;3.07;;;19.60;1.00;;;;;;5113684;28;20445;-56
2021/10/01 14:22:49;;;;;;;4.73;3.30;;;19.60;1.00;;;;;;5094019;28;20447;-56
2021/10/01 14:25:16;;;;;;;8.90;3.30;;;19.70;1.00;;;;;;5113709;28;20856;-57
2021/10/01 14:27:42;;;;;;;3.70;3.07;;;19.80;1.00;;;;;;5113670;28;20474;-56
2021/10/01 14:30:11;;;;;;;4.50;3.27;;;19.80;1.00;;;;;;5113870;28;20484;-56
2021/10/01 14:32:38;;;;;;;5.47;3.40;;;19.60;1.00;;;;;;5113615;28;20274;-56
2021/10/01 14:35:05;;;;;;;9.20;3.70;;;19.50;1.00;;;;;;5113540;28;20433;-56
2021/10/01 14:37:31;;;;;;;3.80;3.50;;;19.60;1.00;;;;;;5113559;28;20432;-55
2021/10/01 14:39:57;;;;;;;4.33;3.07;;;19.50;1.00;;;;;;5113412;28;20445;-56